createdAt,value
2023-01-20T00:01:24.728Z,8.77
2023-01-20T00:03:53.079Z,8.82
2023-01-20T00:06:20.094Z,9.45
2023-01-20T00:08:51.030Z,9.70
2023-01-20T00:11:23.786Z,9.13
2023-01-20T00:13:55.354Z,10.00
2023-01-20T00:16:22.909Z,9.18
2023-01-20T00:18:49.788Z,10.07
2023-01-20T00:21:19.770Z,9.70
2023-01-20T00:23:47.382Z,9.93
2023-01-20T00:26:19.912Z,8.23
2023-01-20T00:28:47.903Z,10.33
2023-01-20T00:31:18.115Z,9.55
2023-01-20T00:33:45.389Z,10.20
2023-01-20T00:36:13.405Z,9.50
2023-01-20T00:38:39.860Z,9.52
2023-01-20T00:41:07.222Z,11.82
2023-01-20T00:43:33.669Z,11.50
2023-01-20T00:46:00.317Z,9.68
2023-01-20T00:48:26.937Z,9.43
2023-01-20T00:50:54.399Z,10.23
2023-01-20T00:53:20.879Z,9.43
2023-01-20T00:55:47.361Z,9.68
2023-01-20T00:58:13.774Z,8.63
2023-01-20T01:00:40.302Z,8.43
2023-01-20T01:03:06.797Z,8.43
2023-01-20T01:05:34.253Z,9.25
2023-01-20T01:08:00.665Z,7.35
2023-01-20T01:10:27.337Z,7.57
2023-01-20T01:12:53.745Z,6.85
2023-01-20T01:15:20.111Z,7.72
2023-01-20T01:17:46.508Z,6.95
2023-01-20T01:20:13.782Z,7.93
2023-01-20T01:22:40.654Z,7.40
2023-01-20T01:25:07.464Z,9.60
2023-01-20T01:27:33.894Z,9.20
2023-01-20T01:30:00.650Z,8.77
2023-01-20T01:32:27.572Z,9.98
2023-01-20T01:34:54.083Z,10.48
2023-01-20T01:37:20.768Z,9.73
2023-01-20T01:39:47.299Z,8.93
2023-01-20T01:42:15.923Z,8.55
2023-01-20T01:45:10.081Z,7.90
2023-01-20T01:50:22.307Z,7.45
2023-01-20T01:52:52.824Z,7.25
2023-01-20T01:55:21.032Z,7.32
2023-01-20T01:57:49.615Z,7.57
2023-01-20T02:00:16.757Z,7.57
2023-01-20T02:02:47.271Z,6.95
2023-01-20T02:05:16.382Z,6.75
2023-01-20T02:07:46.241Z,6.55
2023-01-20T02:10:13.217Z,7.60
2023-01-20T02:12:40.394Z,7.88
2023-01-20T02:15:08.580Z,7.13
2023-01-20T02:17:53.952Z,7.00
2023-01-20T02:20:44.695Z,7.20
2023-01-20T02:23:26.308Z,6.38
2023-01-20T02:26:20.190Z,6.15
2023-01-20T02:29:21.413Z,7.47
2023-01-20T02:32:11.295Z,7.05
2023-01-20T02:34:46.004Z,8.73
2023-01-20T02:37:19.698Z,8.57
2023-01-20T02:39:57.685Z,8.80
2023-01-20T02:42:41.127Z,8.95
2023-01-20T02:45:33.960Z,9.57
2023-01-20T02:48:12.760Z,7.65
2023-01-20T02:51:00.923Z,8.00
2023-01-20T02:53:35.635Z,8.82
2023-01-20T02:56:02.813Z,9.35
2023-01-20T02:58:38.594Z,9.70
2023-01-20T03:01:10.826Z,8.57
2023-01-20T03:03:41.523Z,10.18
2023-01-20T03:06:15.668Z,9.65
2023-01-20T03:08:42.235Z,8.73
2023-01-20T03:11:09.277Z,8.88
2023-01-20T03:13:51.272Z,8.63
2023-01-20T03:16:21.336Z,11.05
2023-01-20T03:18:48.701Z,10.00
2023-01-20T03:21:15.547Z,10.95
2023-01-20T03:23:49.105Z,9.57
2023-01-20T03:26:18.231Z,9.68
2023-01-20T03:28:46.093Z,7.70
2023-01-20T03:31:26.084Z,8.73
2023-01-20T03:33:55.662Z,8.85
2023-01-20T03:36:24.809Z,8.85
2023-01-20T03:38:56.448Z,8.38
2023-01-20T03:41:47.958Z,8.75
2023-01-20T03:44:24.117Z,7.72
2023-01-20T03:47:08.728Z,8.07
2023-01-20T03:49:51.804Z,8.55
2023-01-20T03:52:48.483Z,9.55
2023-01-20T03:55:41.840Z,8.80
2023-01-20T03:58:11.969Z,9.50
2023-01-20T04:00:44.004Z,9.30
2023-01-20T04:03:18.817Z,8.98
2023-01-20T04:05:47.854Z,8.82
2023-01-20T04:08:17.306Z,8.88
2023-01-20T04:10:47.478Z,8.63
2023-01-20T04:13:15.131Z,8.23
2023-01-20T04:15:46.485Z,8.63
2023-01-20T04:18:15.159Z,8.77
2023-01-20T04:20:43.458Z,8.95
2023-01-20T04:23:19.726Z,9.45
2023-01-20T04:25:46.149Z,9.57
2023-01-20T04:28:12.528Z,9.38
2023-01-20T04:30:39.092Z,9.02
2023-01-20T04:33:08.916Z,8.40
2023-01-20T04:35:35.375Z,9.20
2023-01-20T04:38:02.290Z,9.10
2023-01-20T04:40:28.748Z,9.48
2023-01-20T04:42:55.156Z,9.85
2023-01-20T04:45:21.535Z,10.02
2023-01-20T04:47:47.949Z,9.23
2023-01-20T04:50:15.325Z,8.77
2023-01-20T04:52:42.163Z,8.55
2023-01-20T04:55:09.189Z,8.60
2023-01-20T04:57:37.192Z,9.35
2023-01-20T05:00:05.669Z,9.73
2023-01-20T05:02:32.185Z,8.75
2023-01-20T05:04:58.607Z,10.00
2023-01-20T05:07:25.061Z,8.48
2023-01-20T05:09:51.464Z,8.57
2023-01-20T05:12:18.012Z,8.75
2023-01-20T05:14:44.428Z,9.32
2023-01-20T05:17:10.912Z,8.50
2023-01-20T05:19:37.348Z,7.40
2023-01-20T05:22:03.819Z,9.18
2023-01-20T05:24:30.842Z,9.77
2023-01-20T05:27:00.473Z,8.50
2023-01-20T05:29:27.903Z,8.73
2023-01-20T05:31:54.331Z,9.75
2023-01-20T05:34:20.821Z,9.48
2023-01-20T05:36:51.964Z,9.23
2023-01-20T05:39:19.403Z,9.38
2023-01-20T05:41:46.522Z,10.00
2023-01-20T05:44:15.409Z,9.55
2023-01-20T05:46:42.216Z,9.68
2023-01-20T05:49:11.247Z,8.32
2023-01-20T05:51:37.736Z,8.70
2023-01-20T05:54:04.392Z,10.60
2023-01-20T05:56:30.800Z,10.40
2023-01-20T05:58:57.262Z,10.10
2023-01-20T06:01:23.979Z,10.63
2023-01-20T06:03:50.624Z,10.38
2023-01-20T06:06:18.573Z,9.05
2023-01-20T06:08:45.655Z,9.80
2023-01-20T06:11:13.698Z,9.88
2023-01-20T06:13:40.137Z,9.68
2023-01-20T06:16:07.656Z,9.18
2023-01-20T06:18:34.617Z,8.93
2023-01-20T06:21:01.204Z,9.05
2023-01-20T06:23:27.911Z,10.10
2023-01-20T06:26:06.299Z,9.90
2023-01-20T06:28:34.014Z,10.07
2023-01-20T06:31:12.081Z,11.00
2023-01-20T06:33:38.933Z,11.98
2023-01-20T06:36:06.727Z,12.35
2023-01-20T06:38:34.832Z,11.52
2023-01-20T06:41:03.992Z,10.07
2023-01-20T06:43:32.574Z,9.60
2023-01-20T06:46:01.306Z,9.45
2023-01-20T06:48:29.178Z,10.30
2023-01-20T06:51:07.546Z,9.55
2023-01-20T06:53:34.243Z,9.73
2023-01-20T06:56:01.427Z,9.10
2023-01-20T06:58:30.654Z,9.80
2023-01-20T07:00:58.606Z,10.45
2023-01-20T07:03:25.291Z,10.57
2023-01-20T07:05:59.321Z,12.15
2023-01-20T07:08:26.136Z,11.65
2023-01-20T07:10:52.503Z,9.13
2023-01-20T07:13:18.951Z,10.13
2023-01-20T07:15:45.718Z,11.57
2023-01-20T07:18:12.116Z,9.70
2023-01-20T07:20:43.234Z,11.18
2023-01-20T07:23:09.712Z,10.77
2023-01-20T07:25:38.110Z,10.10
2023-01-20T07:28:04.950Z,10.27
2023-01-20T07:30:35.643Z,10.20
2023-01-20T07:33:02.096Z,9.27
2023-01-20T07:35:29.319Z,9.07
2023-01-20T07:37:55.713Z,8.50
2023-01-20T07:40:22.156Z,9.00
2023-01-20T07:42:48.546Z,10.70
2023-01-20T07:45:16.279Z,11.90
2023-01-20T07:47:42.914Z,12.00
2023-01-20T07:50:09.896Z,13.55
2023-01-20T07:52:36.288Z,12.32
2023-01-20T07:55:03.169Z,13.05
2023-01-20T07:57:30.307Z,14.38
2023-01-20T07:59:56.895Z,13.90
2023-01-20T08:02:23.408Z,13.45
2023-01-20T08:04:49.942Z,14.30
2023-01-20T08:07:16.331Z,12.80
2023-01-20T08:09:43.958Z,13.00
2023-01-20T08:12:10.439Z,14.07
2023-01-20T08:14:37.934Z,13.00
2023-01-20T08:17:04.504Z,12.48
2023-01-20T08:19:30.917Z,11.55
2023-01-20T08:21:57.324Z,11.65
2023-01-20T08:24:23.760Z,11.35
2023-01-20T08:26:51.169Z,13.57
2023-01-20T08:29:17.769Z,12.82
2023-01-20T08:31:44.372Z,13.77
2023-01-20T08:34:12.170Z,14.15
2023-01-20T08:36:45.475Z,16.13
2023-01-20T08:39:14.977Z,15.18
2023-01-20T08:41:43.756Z,17.45
2023-01-20T08:44:10.951Z,16.63
2023-01-20T08:46:41.544Z,41.03
2023-01-20T08:49:16.267Z,22.92
2023-01-20T08:51:44.729Z,18.02
2023-01-20T08:54:11.771Z,15.73
2023-01-20T08:56:38.282Z,16.33
2023-01-20T08:59:04.992Z,15.85
2023-01-20T09:01:35.957Z,13.52
2023-01-20T09:04:06.216Z,15.57
2023-01-20T09:06:40.258Z,16.17
2023-01-20T09:11:33.566Z,16.88
2023-01-20T09:14:00.300Z,16.65
2023-01-20T09:16:27.020Z,16.48
2023-01-20T09:18:53.548Z,15.82
2023-01-20T09:21:20.138Z,16.00
2023-01-20T09:23:48.215Z,15.90
2023-01-20T09:26:26.132Z,16.38
2023-01-20T09:29:08.864Z,15.88
2023-01-20T09:31:46.833Z,16.35
2023-01-20T09:34:19.685Z,16.15
2023-01-20T09:36:50.037Z,16.27
2023-01-20T09:39:35.922Z,15.20
2023-01-20T09:42:37.791Z,18.90
2023-01-20T09:45:25.645Z,16.60
2023-01-20T09:47:58.775Z,17.13
2023-01-20T09:51:02.447Z,16.48
2023-01-20T09:53:42.424Z,15.75
2023-01-20T09:56:27.961Z,14.55
2023-01-20T09:59:09.107Z,14.55
2023-01-20T10:01:58.055Z,14.90
2023-01-20T10:04:32.973Z,15.85
2023-01-20T10:07:11.248Z,16.52
2023-01-20T10:09:49.544Z,13.45
2023-01-20T10:12:27.211Z,12.88
2023-01-20T10:15:20.578Z,13.93
2023-01-20T10:17:53.176Z,15.00
2023-01-20T10:20:41.379Z,14.48
2023-01-20T10:23:10.313Z,11.98
2023-01-20T10:25:53.724Z,13.07
2023-01-20T10:28:33.981Z,12.65
2023-01-20T10:31:04.509Z,10.67
2023-01-20T10:33:37.241Z,11.70
2023-01-20T10:36:04.422Z,12.23
2023-01-20T10:38:43.093Z,12.25
2023-01-20T10:41:19.824Z,11.93
2023-01-20T10:43:47.915Z,12.13
2023-01-20T10:46:44.059Z,11.50
2023-01-20T10:49:34.902Z,11.75
2023-01-20T10:52:29.310Z,12.80
2023-01-20T10:55:15.704Z,11.73
2023-01-20T10:57:42.431Z,12.25
2023-01-20T11:00:23.660Z,11.05
2023-01-20T11:02:52.499Z,10.98
2023-01-20T11:05:25.978Z,10.90
2023-01-20T11:08:13.136Z,9.65
2023-01-20T11:10:40.108Z,11.90
2023-01-20T11:13:10.702Z,11.38
2023-01-20T11:15:41.705Z,11.68
2023-01-20T11:18:14.223Z,10.60
2023-01-20T11:20:49.501Z,12.68
2023-01-20T11:23:23.929Z,12.63
2023-01-20T11:25:57.759Z,11.27
2023-01-20T11:28:25.131Z,12.20
2023-01-20T11:30:56.389Z,10.40
2023-01-20T11:33:26.423Z,10.52
2023-01-20T11:36:05.032Z,10.50
2023-01-20T11:38:46.308Z,10.65
2023-01-20T11:41:14.066Z,10.40
2023-01-20T11:43:40.945Z,13.68
2023-01-20T11:46:11.452Z,9.02
2023-01-20T11:48:38.540Z,10.65
2023-01-20T11:51:05.331Z,9.15
2023-01-20T11:53:33.240Z,9.45
2023-01-20T11:56:12.363Z,9.65
2023-01-20T11:59:02.062Z,9.52
2023-01-20T12:01:31.486Z,9.98
2023-01-20T12:04:01.064Z,10.50
2023-01-20T12:06:33.486Z,9.43
2023-01-20T12:09:04.885Z,9.93
2023-01-20T12:11:35.623Z,9.90
2023-01-20T12:14:21.195Z,9.18
2023-01-20T12:17:02.782Z,9.65
2023-01-20T12:20:06.290Z,8.45
2023-01-20T12:22:48.040Z,9.68
2023-01-20T12:25:25.020Z,10.55
2023-01-20T12:27:56.609Z,10.30
2023-01-20T12:30:36.586Z,11.00
2023-01-20T12:33:03.290Z,10.00
2023-01-20T12:35:37.617Z,10.20
2023-01-20T12:38:08.390Z,9.25
2023-01-20T12:40:48.829Z,9.35
2023-01-20T12:43:32.609Z,10.18
2023-01-20T12:46:17.353Z,10.48
2023-01-20T12:49:13.807Z,10.20
2023-01-20T12:51:42.050Z,9.30
2023-01-20T12:54:47.734Z,10.65
2023-01-20T12:57:59.942Z,8.95
2023-01-20T13:00:32.228Z,9.05
2023-01-20T13:03:24.372Z,9.70
2023-01-20T13:06:19.258Z,9.40
2023-01-20T13:09:08.836Z,10.18
2023-01-20T13:12:13.024Z,10.57
2023-01-20T13:14:47.484Z,10.82
2023-01-20T13:17:32.831Z,10.25
2023-01-20T13:20:02.849Z,10.75
2023-01-20T13:22:30.748Z,11.93
2023-01-20T13:24:59.763Z,11.15
2023-01-20T13:27:32.516Z,11.52
2023-01-20T13:30:03.094Z,11.70
2023-01-20T13:32:43.182Z,11.02
2023-01-20T13:35:15.754Z,11.80
2023-01-20T13:37:53.183Z,12.67
2023-01-20T13:40:37.754Z,12.02
2023-01-20T13:43:25.567Z,14.05
2023-01-20T13:46:07.426Z,11.27
2023-01-20T13:48:36.198Z,11.80
2023-01-20T13:51:21.565Z,13.13
2023-01-20T13:53:48.021Z,12.45
2023-01-20T13:56:28.179Z,12.27
2023-01-20T13:58:55.907Z,12.82
2023-01-20T14:01:22.373Z,13.10
2023-01-20T14:04:06.843Z,12.73
2023-01-20T14:06:35.763Z,18.73
2023-01-20T14:09:03.601Z,13.63
2023-01-20T14:11:31.324Z,13.55
2023-01-20T14:14:05.856Z,13.93
2023-01-20T14:16:35.188Z,13.63
2023-01-20T14:19:15.209Z,13.88
2023-01-20T14:21:42.645Z,13.75
2023-01-20T14:24:29.319Z,14.93
2023-01-20T14:27:21.774Z,14.95
2023-01-20T14:29:53.432Z,14.70
2023-01-20T14:32:23.780Z,13.13
2023-01-20T14:34:51.521Z,12.82
2023-01-20T14:37:27.649Z,12.20
2023-01-20T14:39:56.867Z,12.48
2023-01-20T14:42:23.661Z,13.02
2023-01-20T14:44:52.189Z,13.38
2023-01-20T14:47:21.016Z,13.38
2023-01-20T14:49:58.972Z,13.52
2023-01-20T14:52:30.736Z,13.32
2023-01-20T14:54:57.740Z,13.57
2023-01-20T14:57:40.649Z,14.95
2023-01-20T15:00:20.541Z,16.13
2023-01-20T15:03:09.265Z,14.35
2023-01-20T15:05:40.513Z,12.55
2023-01-20T15:08:18.614Z,14.63
2023-01-20T15:10:45.869Z,13.70
2023-01-20T15:13:28.066Z,13.63
2023-01-20T15:16:12.878Z,13.32
2023-01-20T15:18:39.791Z,12.77
2023-01-20T15:21:28.104Z,13.40
2023-01-20T15:23:54.548Z,12.75
2023-01-20T15:26:29.523Z,106.43
2023-01-20T15:28:57.425Z,60.53
2023-01-20T15:31:25.006Z,48.85
2023-01-20T15:33:51.517Z,17.00
2023-01-20T15:36:24.001Z,14.73
2023-01-20T15:38:51.058Z,15.30
2023-01-20T15:41:18.583Z,16.67
2023-01-20T15:43:45.589Z,30.67
2023-01-20T15:46:14.185Z,16.92
2023-01-20T15:48:41.325Z,14.50
2023-01-20T15:51:13.385Z,48.10
2023-01-20T15:53:39.936Z,48.65
2023-01-20T15:56:10.115Z,16.92
2023-01-20T15:58:37.218Z,40.35
2023-01-20T16:01:03.631Z,16.35
2023-01-20T16:03:33.190Z,15.48
2023-01-20T16:05:59.652Z,15.48
2023-01-20T16:08:35.664Z,14.38
2023-01-20T16:11:02.178Z,14.30
2023-01-20T16:13:28.717Z,14.13
2023-01-20T16:15:55.466Z,15.15
2023-01-20T16:18:22.468Z,14.55
2023-01-20T16:20:52.417Z,15.77
2023-01-20T16:23:19.373Z,17.15
2023-01-20T16:25:45.811Z,16.92
2023-01-20T16:28:14.596Z,16.60
2023-01-20T16:30:42.216Z,15.60
2023-01-20T16:33:20.657Z,15.95
2023-01-20T16:35:48.116Z,15.00
2023-01-20T16:38:15.935Z,16.23
2023-01-20T16:40:46.963Z,16.35
2023-01-20T16:43:13.853Z,15.88
2023-01-20T16:45:40.361Z,16.85
2023-01-20T16:48:09.182Z,14.73
2023-01-20T16:50:37.088Z,13.90
2023-01-20T16:53:04.042Z,15.95
2023-01-20T16:55:32.840Z,15.63
2023-01-20T16:57:59.423Z,15.30
2023-01-20T17:00:25.960Z,13.35
2023-01-20T17:02:53.325Z,16.17
2023-01-20T17:05:22.690Z,15.05
2023-01-20T17:07:50.193Z,17.17
2023-01-20T17:10:17.915Z,17.90
2023-01-20T17:12:46.716Z,17.48
2023-01-20T17:15:14.571Z,20.52
2023-01-20T17:17:41.670Z,18.55
2023-01-20T17:20:12.493Z,20.63
2023-01-20T17:22:40.105Z,17.88
2023-01-20T17:25:08.469Z,18.27
2023-01-20T17:27:35.906Z,17.70
2023-01-20T17:30:03.182Z,16.77
2023-01-20T17:32:29.611Z,17.23
2023-01-20T17:34:56.061Z,16.75
2023-01-20T17:37:22.513Z,15.65
2023-01-20T17:39:48.947Z,16.38
2023-01-20T17:42:17.576Z,15.45
2023-01-20T17:44:44.203Z,15.98
2023-01-20T17:47:11.596Z,15.80
2023-01-20T17:49:42.963Z,16.38
2023-01-20T17:52:09.540Z,16.80
2023-01-20T17:54:36.039Z,15.43
2023-01-20T17:57:02.658Z,18.35
2023-01-20T17:59:29.181Z,21.98
2023-01-20T18:01:56.773Z,19.65
2023-01-20T18:04:23.208Z,19.17
2023-01-20T18:06:49.646Z,17.90
2023-01-20T18:09:16.114Z,20.17
2023-01-20T18:11:43.659Z,20.38
2023-01-20T18:14:10.984Z,21.23
2023-01-20T18:16:43.263Z,23.27
2023-01-20T18:19:12.436Z,20.02
2023-01-20T18:21:39.534Z,19.23
2023-01-20T18:24:07.571Z,19.75
2023-01-20T18:26:36.121Z,19.90
2023-01-20T18:29:07.728Z,19.08
2023-01-20T18:31:35.117Z,23.30
2023-01-20T18:34:05.060Z,24.27
2023-01-20T18:36:34.387Z,25.90
2023-01-20T18:39:11.686Z,24.52
2023-01-20T18:41:38.340Z,21.30
2023-01-20T18:44:05.795Z,20.38
2023-01-20T18:46:32.949Z,20.65
2023-01-20T18:48:59.535Z,21.00
2023-01-20T18:51:28.402Z,20.80
2023-01-20T18:53:59.689Z,21.02
2023-01-20T18:56:28.354Z,20.95
2023-01-20T18:58:59.060Z,20.88
2023-01-20T19:01:29.316Z,20.40
2023-01-20T19:03:56.841Z,21.20
2023-01-20T19:06:30.872Z,20.38
2023-01-20T19:08:58.757Z,19.85
2023-01-20T19:11:31.762Z,20.23
2023-01-20T19:13:59.395Z,21.17
2023-01-20T19:16:32.522Z,20.02
2023-01-20T19:19:03.763Z,21.42
2023-01-20T19:21:32.530Z,22.48
2023-01-20T19:24:01.494Z,22.55
2023-01-20T19:26:28.433Z,22.00
2023-01-20T19:29:03.420Z,21.98
2023-01-20T19:31:31.932Z,21.13
2023-01-20T19:33:58.490Z,19.63
2023-01-20T19:36:25.167Z,21.00
2023-01-20T19:38:51.844Z,22.00
2023-01-20T19:41:21.056Z,21.13
2023-01-20T19:43:47.797Z,21.45
2023-01-20T19:46:16.235Z,20.50
2023-01-20T19:48:43.054Z,22.50
2023-01-20T19:51:13.142Z,22.52
2023-01-20T19:53:40.490Z,22.48
2023-01-20T19:56:09.314Z,21.10
2023-01-20T19:58:39.805Z,24.42
2023-01-20T20:01:12.899Z,22.40
2023-01-20T20:03:39.677Z,21.00
2023-01-20T20:06:07.713Z,21.55
2023-01-20T20:08:36.305Z,20.17
2023-01-20T20:11:11.092Z,21.85
2023-01-20T20:13:37.547Z,20.40
2023-01-20T20:16:05.777Z,22.20
2023-01-20T20:18:32.640Z,23.67
2023-01-20T20:20:59.808Z,20.65
2023-01-20T20:23:26.428Z,22.55
2023-01-20T20:25:57.500Z,26.15
2023-01-20T20:28:28.154Z,25.88
2023-01-20T20:30:55.554Z,25.27
2023-01-20T20:33:25.413Z,25.38
2023-01-20T20:35:52.089Z,23.02
2023-01-20T20:38:18.771Z,24.25
2023-01-20T20:40:46.144Z,23.38
2023-01-20T20:43:12.714Z,24.00
2023-01-20T20:45:39.353Z,25.23
2023-01-20T20:48:06.102Z,24.52
2023-01-20T20:50:34.525Z,22.42
2023-01-20T20:53:01.121Z,22.27
2023-01-20T20:55:29.243Z,21.42
2023-01-20T20:57:56.534Z,21.55
2023-01-20T21:00:25.084Z,22.70
2023-01-20T21:02:51.565Z,21.23
2023-01-20T21:05:20.527Z,23.00
2023-01-20T21:07:46.949Z,22.77
2023-01-20T21:10:15.824Z,21.38
2023-01-20T21:12:43.893Z,22.27
2023-01-20T21:15:11.421Z,20.58
2023-01-20T21:17:40.574Z,21.50
2023-01-20T21:20:10.759Z,21.33
2023-01-20T21:22:38.218Z,24.48
2023-01-20T21:25:06.195Z,22.58
2023-01-20T21:27:33.410Z,22.48
2023-01-20T21:29:59.862Z,22.75
2023-01-20T21:32:26.464Z,23.23
2023-01-20T21:34:53.244Z,21.42
2023-01-20T21:37:20.540Z,19.50
2023-01-20T21:39:46.964Z,21.70
2023-01-20T21:42:13.427Z,19.80
2023-01-20T21:44:42.588Z,20.27
2023-01-20T21:47:09.169Z,20.17
2023-01-20T21:49:54.000Z,20.45
2023-01-20T21:52:41.079Z,20.08
2023-01-20T21:55:22.675Z,20.13
2023-01-20T21:57:51.341Z,19.92
2023-01-20T22:00:18.639Z,20.00
2023-01-20T22:02:45.493Z,18.98
2023-01-20T22:05:13.588Z,20.33
2023-01-20T22:07:40.090Z,20.67
2023-01-20T22:10:07.812Z,19.83
2023-01-20T22:12:35.570Z,20.70
2023-01-20T22:15:03.691Z,20.20
2023-01-20T22:17:33.054Z,20.73
2023-01-20T22:19:59.626Z,19.92
2023-01-20T22:22:26.056Z,20.30
2023-01-20T22:24:53.242Z,18.90
2023-01-20T22:27:19.738Z,17.77
2023-01-20T22:29:46.420Z,19.52
2023-01-20T22:32:12.975Z,17.58
2023-01-20T22:34:39.445Z,17.33
2023-01-20T22:37:05.870Z,19.27
2023-01-20T22:39:32.296Z,17.45
2023-01-20T22:41:58.752Z,17.75
2023-01-20T22:44:25.369Z,19.85
2023-01-20T22:46:51.898Z,20.75
2023-01-20T22:49:18.467Z,20.70
2023-01-20T22:51:45.093Z,19.50
2023-01-20T22:54:11.745Z,19.70
2023-01-20T22:56:39.485Z,21.00
2023-01-20T22:59:06.525Z,16.15
2023-01-20T23:01:35.163Z,16.58
2023-01-20T23:04:04.137Z,17.35
2023-01-20T23:06:34.553Z,18.83
2023-01-20T23:09:04.663Z,18.13
2023-01-20T23:11:32.371Z,18.23
2023-01-20T23:13:58.951Z,20.10
2023-01-20T23:16:25.492Z,18.17
2023-01-20T23:18:53.056Z,17.77
2023-01-20T23:21:20.727Z,19.77
2023-01-20T23:23:54.112Z,18.83
2023-01-20T23:26:26.498Z,18.92
2023-01-20T23:28:53.973Z,18.73
2023-01-20T23:31:21.804Z,19.30
2023-01-20T23:33:48.414Z,17.30
2023-01-20T23:36:33.128Z,18.40
2023-01-20T23:38:59.625Z,23.67
2023-01-20T23:41:26.185Z,17.23
2023-01-20T23:43:52.709Z,16.67
2023-01-20T23:46:19.455Z,17.25
2023-01-20T23:48:46.968Z,17.73
2023-01-20T23:51:13.913Z,17.67
2023-01-20T23:53:46.168Z,17.10
2023-01-20T23:56:16.182Z,19.27
2023-01-20T23:58:43.087Z,16.35
